createdAt,value
2022-08-24T00:02:18.093Z,99141.50
2022-08-24T00:04:48.681Z,99145.59
2022-08-24T00:07:27.551Z,99139.69
2022-08-24T00:09:57.143Z,99144.38
2022-08-24T00:12:26.331Z,99144.81
2022-08-24T00:14:56.021Z,99149.97
2022-08-24T00:17:25.779Z,99152.13
2022-08-24T00:19:56.519Z,99151.47
2022-08-24T00:22:26.202Z,99154.34
2022-08-24T00:24:54.474Z,99148.22
2022-08-24T00:27:23.486Z,99158.34
2022-08-24T00:29:52.037Z,99152.59
2022-08-24T00:32:23.481Z,99154.16
2022-08-24T00:34:58.743Z,99154.31
2022-08-24T00:37:29.141Z,99162.56
2022-08-24T00:39:59.614Z,99157.34
2022-08-24T00:42:29.385Z,99158.34
2022-08-24T00:45:01.433Z,99153.63
2022-08-24T00:47:37.424Z,99158.56
2022-08-24T00:50:11.908Z,99148.63
2022-08-24T00:52:45.336Z,99151.19
2022-08-24T00:55:17.823Z,99153.03
2022-08-24T00:57:49.778Z,99146.44
2022-08-24T01:00:21.173Z,99148.50
2022-08-24T01:02:53.290Z,99155.03
2022-08-24T01:05:23.359Z,99149.31
2022-08-24T01:07:52.535Z,99149.16
2022-08-24T01:10:25.258Z,99159.63
2022-08-24T01:13:01.049Z,99155.59
2022-08-24T01:15:30.365Z,99160.31
2022-08-24T01:18:16.197Z,99168.03
2022-08-24T01:20:56.216Z,99166.53
2022-08-24T01:23:39.066Z,99177.97
2022-08-24T01:26:09.555Z,99167.84
2022-08-24T01:28:42.166Z,99170.91
2022-08-24T01:31:10.888Z,99174.25
2022-08-24T01:33:40.823Z,99176.31
2022-08-24T01:36:16.442Z,99174.41
2022-08-24T01:38:47.561Z,99174.44
2022-08-24T01:41:17.644Z,99175.03
2022-08-24T01:43:45.925Z,99185.78
2022-08-24T01:46:14.124Z,99185.41
2022-08-24T01:48:42.818Z,99186.41
2022-08-24T01:51:11.272Z,99185.44
2022-08-24T01:53:41.070Z,99184.91
2022-08-24T01:56:11.165Z,99177.63
2022-08-24T01:58:45.642Z,99183.03
2022-08-24T02:01:20.142Z,99181.84
2022-08-24T02:03:48.484Z,99190.69
2022-08-24T02:06:20.917Z,99190.53
2022-08-24T02:08:49.248Z,99196.16
2022-08-24T02:11:19.492Z,99197.75
2022-08-24T02:13:47.921Z,99200.56
2022-08-24T02:16:16.637Z,99200.13
2022-08-24T02:18:45.088Z,99198.03
2022-08-24T02:21:17.038Z,99206.91
2022-08-24T02:23:45.483Z,99198.41
2022-08-24T02:26:14.831Z,99202.09
2022-08-24T02:28:45.155Z,99204.00
2022-08-24T02:31:15.189Z,99203.16
2022-08-24T02:33:43.994Z,99207.84
2022-08-24T02:36:25.646Z,99208.91
2022-08-24T02:38:55.324Z,99206.59
2022-08-24T02:41:24.829Z,99214.25
2022-08-24T02:43:56.956Z,99218.06
2022-08-24T02:46:27.636Z,99217.97
2022-08-24T02:49:10.431Z,99214.88
2022-08-24T02:51:44.160Z,99213.91
2022-08-24T02:54:18.488Z,99217.78
2022-08-24T02:56:48.364Z,99220.56
2022-08-24T02:59:18.792Z,99218.88
2022-08-24T03:01:50.064Z,99218.66
2022-08-24T03:04:18.890Z,99225.97
2022-08-24T03:06:47.616Z,99221.19
2022-08-24T03:09:17.382Z,99223.97
2022-08-24T03:11:50.582Z,99226.03
2022-08-24T03:14:22.041Z,99225.28
2022-08-24T03:16:50.791Z,99219.50
2022-08-24T03:19:20.528Z,99211.16
2022-08-24T03:21:48.778Z,99214.41
2022-08-24T03:24:17.501Z,99202.84
2022-08-24T03:26:45.574Z,99209.22
2022-08-24T03:29:15.841Z,99209.34
2022-08-24T03:31:46.550Z,99214.03
2022-08-24T03:34:15.554Z,99206.13
2022-08-24T03:36:46.734Z,99206.22
2022-08-24T03:39:15.649Z,99206.84
2022-08-24T03:41:44.557Z,99209.13
2022-08-24T03:44:13.015Z,99198.78
2022-08-24T03:46:42.086Z,99209.75
2022-08-24T03:49:12.077Z,99200.66
2022-08-24T03:51:40.993Z,99206.19
2022-08-24T03:54:11.705Z,99211.97
2022-08-24T03:56:42.692Z,99214.97
2022-08-24T03:59:12.257Z,99209.28
2022-08-24T04:01:41.057Z,99198.97
2022-08-24T04:04:09.326Z,99198.38
2022-08-24T04:06:44.554Z,99199.97
2022-08-24T04:09:13.413Z,99201.22
2022-08-24T04:11:46.288Z,99196.75
2022-08-24T04:14:23.601Z,99212.28
2022-08-24T04:16:57.388Z,99201.75
2022-08-24T04:19:29.232Z,99208.66
2022-08-24T04:21:59.262Z,99205.19
2022-08-24T04:24:28.289Z,99209.00
2022-08-24T04:26:56.618Z,99203.78
2022-08-24T04:29:25.766Z,99203.44
2022-08-24T04:31:54.992Z,99206.94
2022-08-24T04:34:24.092Z,99207.03
2022-08-24T04:36:52.224Z,99203.44
2022-08-24T04:39:23.536Z,99205.06
2022-08-24T04:41:55.396Z,99207.28
2022-08-24T04:44:23.709Z,99208.78
2022-08-24T04:46:52.212Z,99211.03
2022-08-24T04:49:20.827Z,99206.25
2022-08-24T04:51:49.654Z,99206.78
2022-08-24T04:54:18.275Z,99209.56
2022-08-24T04:56:47.954Z,99217.84
2022-08-24T04:59:16.715Z,99221.59
2022-08-24T05:01:46.118Z,99219.06
2022-08-24T05:04:14.725Z,99230.66
2022-08-24T05:06:43.268Z,99234.81
2022-08-24T05:09:12.469Z,99233.03
2022-08-24T05:11:41.891Z,99230.81
2022-08-24T05:14:19.650Z,99245.41
2022-08-24T05:16:53.104Z,99242.63
2022-08-24T05:19:23.414Z,99234.72
2022-08-24T05:21:52.269Z,99238.13
2022-08-24T05:24:21.300Z,99234.63
2022-08-24T05:26:51.541Z,99236.31
2022-08-24T05:29:26.631Z,99239.94
2022-08-24T05:31:56.238Z,99246.53
2022-08-24T05:34:26.025Z,99245.31
2022-08-24T05:36:54.973Z,99242.97
2022-08-24T05:39:27.010Z,99243.84
2022-08-24T05:42:00.007Z,99241.25
2022-08-24T05:44:32.023Z,99258.22
2022-08-24T05:47:01.260Z,99257.75
2022-08-24T05:49:30.337Z,99256.97
2022-08-24T05:51:58.982Z,99256.53
2022-08-24T05:54:28.533Z,99260.06
2022-08-24T05:57:04.843Z,99255.28
2022-08-24T05:59:36.888Z,99253.38
2022-08-24T06:02:05.916Z,99257.91
2022-08-24T06:04:35.465Z,99255.59
2022-08-24T06:07:04.497Z,99254.88
2022-08-24T06:09:32.933Z,99259.09
2022-08-24T06:12:02.231Z,99260.66
2022-08-24T06:14:34.655Z,99257.19
2022-08-24T06:17:06.762Z,99259.91
2022-08-24T06:19:37.424Z,99261.16
2022-08-24T06:22:06.309Z,99260.44
2022-08-24T06:24:55.449Z,99265.47
2022-08-24T06:27:25.714Z,99256.44
2022-08-24T06:29:56.721Z,99255.63
2022-08-24T06:32:30.640Z,99251.94
2022-08-24T06:35:00.118Z,99257.28
2022-08-24T06:37:29.479Z,99263.22
2022-08-24T06:39:59.598Z,99263.25
2022-08-24T06:42:29.656Z,99254.19
2022-08-24T06:45:00.420Z,99261.09
2022-08-24T06:47:30.736Z,99256.38
2022-08-24T06:50:01.620Z,99262.44
2022-08-24T06:52:30.454Z,99264.81
2022-08-24T06:54:59.157Z,99264.66
2022-08-24T06:57:27.650Z,99254.69
2022-08-24T06:59:58.726Z,99260.56
2022-08-24T07:02:28.438Z,99262.59
2022-08-24T07:04:58.563Z,99259.03
2022-08-24T07:07:26.958Z,99259.16
2022-08-24T07:09:55.969Z,99269.72
2022-08-24T07:12:27.323Z,99268.50
2022-08-24T07:14:56.005Z,99269.50
2022-08-24T07:17:26.491Z,99259.81
2022-08-24T07:19:58.532Z,99266.78
2022-08-24T07:22:27.649Z,99262.28
2022-08-24T07:24:58.084Z,99270.97
2022-08-24T07:27:27.646Z,99270.63
2022-08-24T07:30:23.130Z,99270.97
2022-08-24T07:32:46.220Z,99264.56
2022-08-24T07:35:17.834Z,99269.88
2022-08-24T07:37:48.589Z,99276.50
2022-08-24T07:40:19.819Z,99278.47
2022-08-24T07:42:50.883Z,99283.50
2022-08-24T07:45:20.026Z,99282.47
2022-08-24T07:47:55.193Z,99286.81
2022-08-24T07:50:26.885Z,99287.81
2022-08-24T07:52:55.483Z,99282.03
2022-08-24T07:55:24.034Z,99286.44
2022-08-24T07:57:52.476Z,99283.53
2022-08-24T08:00:22.025Z,99292.06
2022-08-24T08:02:50.766Z,99289.41
2022-08-24T08:05:21.856Z,99287.13
2022-08-24T08:07:55.781Z,99296.19
2022-08-24T08:10:24.654Z,99290.38
2022-08-24T08:12:55.361Z,99297.72
2022-08-24T08:15:27.159Z,99296.66
2022-08-24T08:17:55.876Z,99304.22
2022-08-24T08:20:25.068Z,99294.81
2022-08-24T08:23:20.935Z,99294.00
2022-08-24T08:25:50.049Z,99291.00
2022-08-24T08:28:25.731Z,99295.03
2022-08-24T08:30:55.361Z,99300.22
2022-08-24T08:35:57.973Z,99296.13
2022-08-24T08:38:28.988Z,99292.94
2022-08-24T08:41:08.807Z,99289.41
2022-08-24T08:43:45.145Z,99290.50
2022-08-24T08:46:25.735Z,99291.78
2022-08-24T08:49:09.169Z,99288.06
2022-08-24T08:52:18.242Z,99292.97
2022-08-24T08:54:59.636Z,99285.66
2022-08-24T08:57:38.622Z,99282.81
2022-08-24T09:00:18.058Z,99282.47
2022-08-24T09:03:03.298Z,99284.72
2022-08-24T09:05:59.042Z,99283.66
2022-08-24T09:08:43.847Z,99284.22
2022-08-24T09:11:32.629Z,99281.91
2022-08-24T09:14:49.257Z,99276.94
2022-08-24T09:17:53.922Z,99274.63
2022-08-24T09:20:41.581Z,99270.66
2022-08-24T09:23:23.673Z,99268.13
2022-08-24T09:26:03.993Z,99276.88
2022-08-24T09:28:44.691Z,99273.53
2022-08-24T09:31:55.260Z,99268.38
2022-08-24T09:34:48.360Z,99262.63
2022-08-24T09:37:32.724Z,99264.81
2022-08-24T09:40:18.709Z,99259.53
2022-08-24T09:43:17.505Z,99259.09
2022-08-24T09:46:25.570Z,99262.09
2022-08-24T09:49:21.990Z,99255.88
2022-08-24T09:52:10.819Z,99253.50
2022-08-24T09:55:08.665Z,99258.44
2022-08-24T09:58:00.499Z,99257.38
2022-08-24T10:00:35.782Z,99260.16
2022-08-24T10:03:15.733Z,99257.59
2022-08-24T10:06:04.997Z,99253.69
2022-08-24T10:08:59.146Z,99248.88
2022-08-24T10:11:38.124Z,99245.31
2022-08-24T10:14:18.198Z,99250.00
2022-08-24T10:16:56.573Z,99248.66
2022-08-24T10:19:47.798Z,99252.13
2022-08-24T10:22:25.627Z,99247.41
2022-08-24T10:25:11.526Z,99252.00
2022-08-24T10:27:57.038Z,99250.44
2022-08-24T10:30:59.377Z,99239.72
2022-08-24T10:33:31.110Z,99234.88
2022-08-24T10:36:42.500Z,99238.16
2022-08-24T10:39:44.007Z,99231.94
2022-08-24T10:42:54.939Z,99231.44
2022-08-24T10:45:58.870Z,99228.50
2022-08-24T10:48:51.570Z,99228.03
2022-08-24T10:51:36.373Z,99217.84
2022-08-24T10:54:09.019Z,99217.19
2022-08-24T10:56:53.768Z,99216.25
2022-08-24T10:59:27.313Z,99209.41
2022-08-24T11:02:11.927Z,99205.97
2022-08-24T11:04:41.851Z,99212.47
2022-08-24T11:07:21.770Z,99213.69
2022-08-24T11:09:53.695Z,99209.59
2022-08-24T11:12:36.385Z,99205.84
2022-08-24T11:15:11.701Z,99206.00
2022-08-24T11:17:56.751Z,99211.06
2022-08-24T11:20:32.125Z,99208.00
2022-08-24T11:23:05.506Z,99193.56
2022-08-24T11:25:40.475Z,99197.97
2022-08-24T11:28:22.057Z,99205.53
2022-08-24T11:30:51.284Z,99200.88
2022-08-24T11:33:31.028Z,99195.38
2022-08-24T11:36:02.918Z,99196.75
2022-08-24T11:38:35.105Z,99193.81
2022-08-24T11:41:10.228Z,99186.56
2022-08-24T11:44:02.623Z,99196.88
2022-08-24T11:46:38.218Z,99196.63
2022-08-24T11:49:14.231Z,99184.13
2022-08-24T11:51:56.584Z,99187.69
2022-08-24T11:54:34.231Z,99190.16
2022-08-24T11:57:09.665Z,99185.69
2022-08-24T11:59:50.925Z,99173.72
2022-08-24T12:02:29.258Z,99168.19
2022-08-24T12:05:05.694Z,99164.47
2022-08-24T12:07:51.718Z,99156.41
2022-08-24T12:10:35.531Z,99161.22
2022-08-24T12:13:10.865Z,99161.31
2022-08-24T12:15:51.851Z,99158.94
2022-08-24T12:18:32.922Z,99162.59
2022-08-24T12:21:01.850Z,99161.22
2022-08-24T12:23:41.399Z,99155.03
2022-08-24T12:26:13.784Z,99154.97
2022-08-24T12:28:53.641Z,99158.78
2022-08-24T12:31:38.718Z,99148.81
2022-08-24T12:34:14.805Z,99150.19
2022-08-24T12:36:53.573Z,99154.19
2022-08-24T12:39:27.000Z,99143.84
2022-08-24T12:42:07.938Z,99146.44
2022-08-24T12:44:47.575Z,99137.22
2022-08-24T12:47:27.440Z,99151.94
2022-08-24T12:50:02.500Z,99136.06
2022-08-24T12:52:57.869Z,99141.19
2022-08-24T12:56:19.261Z,99149.88
2022-08-24T12:59:06.453Z,99143.78
2022-08-24T13:01:38.238Z,99142.19
2022-08-24T13:04:36.486Z,99144.47
2022-08-24T13:07:09.485Z,99140.41
2022-08-24T13:09:43.804Z,99133.34
2022-08-24T13:12:50.368Z,99136.13
2022-08-24T13:15:23.527Z,99142.00
2022-08-24T13:17:53.398Z,99143.03
2022-08-24T13:20:27.901Z,99127.41
2022-08-24T13:23:07.898Z,99144.06
2022-08-24T13:25:56.967Z,99142.13
2022-08-24T13:28:46.616Z,99134.47
2022-08-24T13:31:25.310Z,99137.22
2022-08-24T13:33:57.434Z,99135.28
2022-08-24T13:36:49.883Z,99131.69
2022-08-24T13:39:56.354Z,99122.84
2022-08-24T13:42:45.335Z,99122.09
2022-08-24T13:45:23.285Z,99128.03
2022-08-24T13:48:04.702Z,99120.00
2022-08-24T13:50:40.025Z,99113.25
2022-08-24T13:53:31.813Z,99115.78
2022-08-24T13:56:45.572Z,99115.59
2022-08-24T13:59:22.715Z,99110.53
2022-08-24T14:02:06.738Z,99121.63
2022-08-24T14:04:43.384Z,99115.44
2022-08-24T14:07:21.969Z,99112.47
2022-08-24T14:10:08.860Z,99108.63
2022-08-24T14:13:00.213Z,99108.06
2022-08-24T14:15:49.266Z,99108.59
2022-08-24T14:18:26.695Z,99110.81
2022-08-24T14:21:09.353Z,99103.16
2022-08-24T14:24:01.028Z,99115.06
2022-08-24T14:27:18.074Z,99099.72
2022-08-24T14:29:49.340Z,99104.72
2022-08-24T14:32:46.414Z,99102.38
2022-08-24T14:35:36.371Z,99101.97
2022-08-24T14:38:23.010Z,99095.03
2022-08-24T14:41:08.038Z,99094.28
2022-08-24T14:43:58.264Z,99091.97
2022-08-24T14:46:37.394Z,99085.91
2022-08-24T14:49:15.657Z,99093.59
2022-08-24T14:52:11.606Z,99095.78
2022-08-24T14:54:54.457Z,99087.41
2022-08-24T14:58:17.848Z,99090.25
2022-08-24T15:01:13.944Z,99087.16
2022-08-24T15:04:17.919Z,99081.34
2022-08-24T15:07:24.869Z,99078.16
2022-08-24T15:09:57.114Z,99083.53
2022-08-24T15:12:35.564Z,99080.06
2022-08-24T15:15:13.376Z,99075.00
2022-08-24T15:17:53.709Z,99072.25
2022-08-24T15:20:49.367Z,99078.97
2022-08-24T15:23:25.128Z,99074.50
2022-08-24T15:25:57.179Z,99071.19
2022-08-24T15:28:28.772Z,99070.91
2022-08-24T15:31:00.329Z,99070.31
2022-08-24T15:33:32.286Z,99075.94
2022-08-24T15:36:12.142Z,99072.06
2022-08-24T15:38:42.280Z,99069.97
2022-08-24T15:41:19.162Z,99073.94
2022-08-24T15:43:53.664Z,99071.47
2022-08-24T15:46:28.047Z,99070.19
2022-08-24T15:49:04.726Z,99072.56
2022-08-24T15:51:45.189Z,99072.75
2022-08-24T15:54:31.239Z,99069.22
2022-08-24T15:57:02.850Z,99070.31
2022-08-24T15:59:47.354Z,99069.09
2022-08-24T16:02:30.780Z,99071.25
2022-08-24T16:05:15.244Z,99068.44
2022-08-24T16:08:10.305Z,99070.75
2022-08-24T16:10:41.998Z,99074.06
2022-08-24T16:13:20.872Z,99075.03
2022-08-24T16:15:51.513Z,99077.00
2022-08-24T16:18:32.309Z,99070.66
2022-08-24T16:21:01.986Z,99076.03
2022-08-24T16:23:33.466Z,99069.84
2022-08-24T16:26:21.285Z,99079.47
2022-08-24T16:28:50.877Z,99076.78
2022-08-24T16:31:53.642Z,99083.06
2022-08-24T16:34:31.238Z,99079.88
2022-08-24T16:37:00.073Z,99080.44
2022-08-24T16:39:30.749Z,99082.06
2022-08-24T16:42:05.507Z,99088.19
2022-08-24T16:44:38.581Z,99083.22
2022-08-24T16:47:09.082Z,99074.88
2022-08-24T16:49:38.070Z,99076.47
2022-08-24T16:52:06.852Z,99079.19
2022-08-24T16:54:37.478Z,99075.91
2022-08-24T16:57:12.852Z,99077.56
2022-08-24T16:59:44.287Z,99080.53
2022-08-24T17:02:13.224Z,99075.72
2022-08-24T17:04:42.838Z,99077.06
2022-08-24T17:07:14.734Z,99071.81
2022-08-24T17:09:47.914Z,99076.75
2022-08-24T17:12:17.254Z,99076.81
2022-08-24T17:14:46.331Z,99075.00
2022-08-24T17:17:17.044Z,99082.91
2022-08-24T17:19:53.442Z,99074.88
2022-08-24T17:22:24.844Z,99079.94
2022-08-24T17:24:57.412Z,99080.38
2022-08-24T17:27:32.758Z,99070.16
2022-08-24T17:30:02.220Z,99076.78
2022-08-24T17:32:30.869Z,99083.25
2022-08-24T17:35:03.365Z,99084.63
2022-08-24T17:37:32.338Z,99081.88
2022-08-24T17:40:04.874Z,99094.59
2022-08-24T17:42:50.425Z,99094.53
2022-08-24T17:45:23.014Z,99088.88
2022-08-24T17:47:53.036Z,99102.34
2022-08-24T17:50:25.425Z,99100.47
2022-08-24T17:53:06.648Z,99107.38
2022-08-24T17:55:36.793Z,99100.28
2022-08-24T17:58:08.407Z,99104.78
2022-08-24T18:00:39.713Z,99111.88
2022-08-24T18:03:10.547Z,99110.03
2022-08-24T18:05:42.296Z,99109.81
2022-08-24T18:08:12.109Z,99109.06
2022-08-24T18:10:42.517Z,99111.59
2022-08-24T18:13:12.354Z,99106.91
2022-08-24T18:15:41.347Z,99112.38
2022-08-24T18:18:10.565Z,99113.19
2022-08-24T18:20:42.069Z,99120.81
2022-08-24T18:23:11.827Z,99122.22
2022-08-24T18:25:48.243Z,99112.84
2022-08-24T18:28:18.738Z,99125.69
2022-08-24T18:30:48.548Z,99127.31
2022-08-24T18:33:17.705Z,99128.50
2022-08-24T18:35:47.802Z,99127.34
2022-08-24T18:38:16.400Z,99132.06
2022-08-24T18:40:52.877Z,99131.84
2022-08-24T18:43:24.651Z,99136.78
2022-08-24T18:45:54.763Z,99138.03
2022-08-24T18:48:24.222Z,99137.22
2022-08-24T18:50:53.473Z,99147.97
2022-08-24T18:53:24.739Z,99144.59
2022-08-24T18:55:55.931Z,99138.97
2022-08-24T18:58:24.494Z,99143.22
2022-08-24T19:00:53.949Z,99139.06
2022-08-24T19:03:25.420Z,99144.19
2022-08-24T19:05:54.839Z,99151.06
2022-08-24T19:08:23.276Z,99146.13
2022-08-24T19:10:54.235Z,99143.81
2022-08-24T19:13:26.209Z,99145.47
2022-08-24T19:15:56.202Z,99143.72
2022-08-24T19:18:25.043Z,99147.72
2022-08-24T19:20:59.242Z,99138.28
2022-08-24T19:23:31.383Z,99145.69
2022-08-24T19:26:03.268Z,99150.75
2022-08-24T19:28:32.364Z,99153.47
2022-08-24T19:31:04.120Z,99146.56
2022-08-24T19:33:38.888Z,99157.47
2022-08-24T19:36:10.141Z,99154.34
2022-08-24T19:38:39.999Z,99159.56
2022-08-24T19:41:14.270Z,99158.03
2022-08-24T19:43:57.336Z,99163.97
2022-08-24T19:46:26.749Z,99154.00
2022-08-24T19:48:56.879Z,99164.28
2022-08-24T19:51:27.022Z,99163.06
2022-08-24T19:53:58.034Z,99161.97
2022-08-24T19:56:28.257Z,99157.34
2022-08-24T19:59:02.432Z,99158.31
2022-08-24T20:01:41.894Z,99156.00
2022-08-24T20:04:10.526Z,99153.03
2022-08-24T20:06:41.363Z,99167.69
2022-08-24T20:09:10.809Z,99163.63
2022-08-24T20:11:41.149Z,99160.19
2022-08-24T20:14:09.796Z,99163.31
2022-08-24T20:16:42.312Z,99159.19
2022-08-24T20:19:12.958Z,99168.13
2022-08-24T20:21:41.668Z,99168.44
2022-08-24T20:24:12.823Z,99171.66
2022-08-24T20:26:46.122Z,99172.66
2022-08-24T20:29:15.673Z,99174.84
2022-08-24T20:31:45.514Z,99175.84
2022-08-24T20:34:17.127Z,99167.13
2022-08-24T20:36:50.616Z,99175.50
2022-08-24T20:39:23.202Z,99178.47
2022-08-24T20:41:54.819Z,99170.91
2022-08-24T20:44:25.216Z,99175.00
2022-08-24T20:46:57.120Z,99161.34
2022-08-24T20:49:28.290Z,99172.78
2022-08-24T20:52:02.121Z,99171.50
2022-08-24T20:54:30.685Z,99168.81
2022-08-24T20:57:03.697Z,99172.00
2022-08-24T20:59:32.478Z,99177.44
2022-08-24T21:02:03.574Z,99173.66
2022-08-24T21:04:34.643Z,99171.38
2022-08-24T21:07:03.025Z,99178.88
2022-08-24T21:09:34.270Z,99175.56
2022-08-24T21:12:04.780Z,99169.94
2022-08-24T21:14:33.476Z,99180.50
2022-08-24T21:17:04.826Z,99172.41
2022-08-24T21:19:36.160Z,99174.28
2022-08-24T21:22:05.430Z,99173.38
2022-08-24T21:24:35.063Z,99172.16
2022-08-24T21:27:07.526Z,99163.56
2022-08-24T21:29:37.762Z,99172.25
2022-08-24T21:32:23.538Z,99170.38
2022-08-24T21:34:52.149Z,99168.41
2022-08-24T21:37:21.405Z,99176.59
2022-08-24T21:39:50.252Z,99169.41
2022-08-24T21:42:21.041Z,99175.75
2022-08-24T21:44:49.488Z,99179.25
2022-08-24T21:47:17.978Z,99186.44
2022-08-24T21:49:47.426Z,99182.25
2022-08-24T21:52:16.032Z,99190.19
2022-08-24T21:54:45.315Z,99185.66
2022-08-24T21:57:13.646Z,99183.34
2022-08-24T21:59:46.924Z,99185.41
2022-08-24T22:02:20.659Z,99180.75
2022-08-24T22:04:56.142Z,99186.66
2022-08-24T22:07:25.754Z,99181.97
2022-08-24T22:09:57.884Z,99187.22
2022-08-24T22:12:26.515Z,99184.13
2022-08-24T22:14:56.925Z,99186.00
2022-08-24T22:17:26.409Z,99185.25
2022-08-24T22:19:55.177Z,99182.16
2022-08-24T22:22:24.323Z,99181.34
2022-08-24T22:24:59.898Z,99177.50
2022-08-24T22:27:28.426Z,99175.91
2022-08-24T22:29:59.064Z,99179.19
2022-08-24T22:32:28.290Z,99183.19
2022-08-24T22:34:58.393Z,99180.78
2022-08-24T22:37:27.138Z,99176.00
2022-08-24T22:39:55.653Z,99180.31
2022-08-24T22:42:23.958Z,99177.44
2022-08-24T22:44:52.444Z,99175.00
2022-08-24T22:47:24.242Z,99177.03
2022-08-24T22:49:54.878Z,99176.09
2022-08-24T22:52:23.397Z,99180.97
2022-08-24T22:54:51.844Z,99185.63
2022-08-24T22:57:20.235Z,99183.69
2022-08-24T22:59:50.486Z,99184.81
2022-08-24T23:02:19.994Z,99189.28
2022-08-24T23:04:52.917Z,99190.69
2022-08-24T23:07:22.112Z,99194.28
2022-08-24T23:09:51.249Z,99189.00
2022-08-24T23:12:24.328Z,99193.97
2022-08-24T23:14:53.686Z,99196.41
2022-08-24T23:17:23.486Z,99188.56
2022-08-24T23:20:01.755Z,99188.28
2022-08-24T23:22:33.821Z,99185.47
2022-08-24T23:25:03.716Z,99193.13
2022-08-24T23:27:37.591Z,99186.50
2022-08-24T23:30:10.531Z,99189.41
2022-08-24T23:32:39.203Z,99196.69
2022-08-24T23:35:12.288Z,99198.44
2022-08-24T23:37:42.306Z,99190.34
2022-08-24T23:40:11.821Z,99197.34
2022-08-24T23:42:40.229Z,99182.31
2022-08-24T23:45:11.945Z,99188.75
2022-08-24T23:47:41.077Z,99190.31
2022-08-24T23:50:12.313Z,99180.78
2022-08-24T23:52:41.559Z,99185.25
2022-08-24T23:55:21.082Z,99186.81
2022-08-24T23:57:52.649Z,99186.34
